sensor_id;sensor_type;location;lat;lon;timestamp;temperature;humidity
41630;DHT22;27322;49.488;8.480;2024-03-23T00:54:10;12.60;99.90
41630;DHT22;27322;49.488;8.480;2024-03-23T00:56:35;12.60;99.90
41630;DHT22;27322;49.488;8.480;2024-03-23T00:59:01;12.60;99.90
41630;DHT22;27322;49.488;8.480;2024-03-23T01:01:27;12.60;99.90
41630;DHT22;27322;49.488;8.480;2024-03-23T01:03:52;12.60;99.90
41630;DHT22;27322;49.488;8.480;2024-03-23T01:06:18;12.50;99.90
41630;DHT22;27322;49.488;8.480;2024-03-23T01:08:44;12.50;99.90
41630;DHT22;27322;49.488;8.480;2024-03-23T01:11:09;12.50;99.90
41630;DHT22;27322;49.488;8.480;2024-03-23T01:13:35;12.50;99.90
41630;DHT22;27322;49.488;8.480;2024-03-23T01:16:00;12.50;99.90
41630;DHT22;27322;49.488;8.480;2024-03-23T01:18:27;12.50;99.90
41630;DHT22;27322;49.488;8.480;2024-03-23T01:20:52;12.60;99.90
41630;DHT22;27322;49.488;8.480;2024-03-23T01:23:18;12.60;99.90
41630;DHT22;27322;49.488;8.480;2024-03-23T01:25:43;12.70;99.90
41630;DHT22;27322;49.488;8.480;2024-03-23T01:28:09;12.70;99.90
41630;DHT22;27322;49.488;8.480;2024-03-23T01:30:35;12.80;99.90
41630;DHT22;27322;49.488;8.480;2024-03-23T01:33:01;12.80;99.90
41630;DHT22;27322;49.488;8.480;2024-03-23T01:35:28;12.80;99.90
41630;DHT22;27322;49.488;8.480;2024-03-23T01:37:53;12.90;99.90
41630;DHT22;27322;49.488;8.480;2024-03-23T01:40:19;12.90;99.90
41630;DHT22;27322;49.488;8.480;2024-03-23T01:42:55;13.00;99.90
41630;DHT22;27322;49.488;8.480;2024-03-23T01:45:21;13.10;99.90
41630;DHT22;27322;49.488;8.480;2024-03-23T01:47:47;13.10;99.90
41630;DHT22;27322;49.488;8.480;2024-03-23T01:50:13;13.10;99.90
41630;DHT22;27322;49.488;8.480;2024-03-23T01:52:39;13.20;99.90
41630;DHT22;27322;49.488;8.480;2024-03-23T01:55:05;13.20;99.90
41630;DHT22;27322;49.488;8.480;2024-03-23T01:57:30;13.20;99.90
41630;DHT22;27322;49.488;8.480;2024-03-23T01:59:56;13.20;99.90
41630;DHT22;27322;49.488;8.480;2024-03-23T02:02:22;13.30;99.90
41630;DHT22;27322;49.488;8.480;2024-03-23T02:04:47;13.30;99.90
41630;DHT22;27322;49.488;8.480;2024-03-23T02:07:13;13.30;99.90
41630;DHT22;27322;49.488;8.480;2024-03-23T02:09:39;13.30;99.90
41630;DHT22;27322;49.488;8.480;2024-03-23T02:12:05;13.30;99.90
41630;DHT22;27322;49.488;8.480;2024-03-23T02:14:30;13.30;99.90
41630;DHT22;27322;49.488;8.480;2024-03-23T02:16:57;13.30;99.90
41630;DHT22;27322;49.488;8.480;2024-03-23T02:19:23;13.40;99.90
41630;DHT22;27322;49.488;8.480;2024-03-23T02:21:49;13.40;99.90
41630;DHT22;27322;49.488;8.480;2024-03-23T02:24:15;13.50;99.90
41630;DHT22;27322;49.488;8.480;2024-03-23T02:26:40;13.40;99.90
41630;DHT22;27322;49.488;8.480;2024-03-23T02:29:06;13.50;99.90
41630;DHT22;27322;49.488;8.480;2024-03-23T02:31:31;13.50;99.90
41630;DHT22;27322;49.488;8.480;2024-03-23T02:33:57;13.50;99.90
41630;DHT22;27322;49.488;8.480;2024-03-23T02:36:22;13.50;99.90
41630;DHT22;27322;49.488;8.480;2024-03-23T02:38:48;13.50;99.90
41630;DHT22;27322;49.488;8.480;2024-03-23T02:41:14;13.50;99.90
41630;DHT22;27322;49.488;8.480;2024-03-23T02:43:39;13.50;99.90
41630;DHT22;27322;49.488;8.480;2024-03-23T02:46:05;13.50;99.90
41630;DHT22;27322;49.488;8.480;2024-03-23T02:48:31;13.60;99.90
41630;DHT22;27322;49.488;8.480;2024-03-23T02:50:56;13.60;99.90
41630;DHT22;27322;49.488;8.480;2024-03-23T02:53:22;13.60;99.90
41630;DHT22;27322;49.488;8.480;2024-03-23T02:55:47;13.60;99.90
41630;DHT22;27322;49.488;8.480;2024-03-23T02:58:14;13.60;99.90
41630;DHT22;27322;49.488;8.480;2024-03-23T03:00:39;13.60;99.90
41630;DHT22;27322;49.488;8.480;2024-03-23T03:03:06;13.60;99.90
41630;DHT22;27322;49.488;8.480;2024-03-23T03:05:32;13.60;99.90
41630;DHT22;27322;49.488;8.480;2024-03-23T03:07:58;13.60;99.90
41630;DHT22;27322;49.488;8.480;2024-03-23T03:10:24;13.60;99.90
41630;DHT22;27322;49.488;8.480;2024-03-23T03:12:49;13.60;99.90
41630;DHT22;27322;49.488;8.480;2024-03-23T03:15:15;13.60;99.90
41630;DHT22;27322;49.488;8.480;2024-03-23T03:17:40;13.60;99.90
41630;DHT22;27322;49.488;8.480;2024-03-23T03:20:06;13.60;99.90
41630;DHT22;27322;49.488;8.480;2024-03-23T03:22:32;13.60;99.90
41630;DHT22;27322;49.488;8.480;2024-03-23T03:24:57;13.70;99.90
41630;DHT22;27322;49.488;8.480;2024-03-23T03:27:23;13.70;99.90
41630;DHT22;27322;49.488;8.480;2024-03-23T03:29:49;13.60;99.90
41630;DHT22;27322;49.488;8.480;2024-03-23T03:32:15;13.70;99.90
41630;DHT22;27322;49.488;8.480;2024-03-23T03:34:40;13.70;99.90
41630;DHT22;27322;49.488;8.480;2024-03-23T03:37:06;13.70;99.90
41630;DHT22;27322;49.488;8.480;2024-03-23T03:39:32;13.70;99.90
41630;DHT22;27322;49.488;8.480;2024-03-23T03:41:57;13.70;99.90
41630;DHT22;27322;49.488;8.480;2024-03-23T03:44:23;13.70;99.90
41630;DHT22;27322;49.488;8.480;2024-03-23T03:46:49;13.60;99.90
41630;DHT22;27322;49.488;8.480;2024-03-23T03:49:14;13.70;99.90
41630;DHT22;27322;49.488;8.480;2024-03-23T03:51:40;13.60;99.90
41630;DHT22;27322;49.488;8.480;2024-03-23T03:54:06;13.70;99.90
41630;DHT22;27322;49.488;8.480;2024-03-23T03:56:32;13.70;99.90
41630;DHT22;27322;49.488;8.480;2024-03-23T03:58:57;13.70;99.90
41630;DHT22;27322;49.488;8.480;2024-03-23T04:01:23;13.70;99.90
41630;DHT22;27322;49.488;8.480;2024-03-23T04:03:48;13.60;99.90
41630;DHT22;27322;49.488;8.480;2024-03-23T04:06:20;13.70;99.90
41630;DHT22;27322;49.488;8.480;2024-03-23T04:08:46;13.70;99.90
41630;DHT22;27322;49.488;8.480;2024-03-23T04:11:11;13.70;99.90
41630;DHT22;27322;49.488;8.480;2024-03-23T04:13:37;13.60;99.90
41630;DHT22;27322;49.488;8.480;2024-03-23T04:16:02;13.60;99.90
41630;DHT22;27322;49.488;8.480;2024-03-23T04:18:29;13.60;99.90
41630;DHT22;27322;49.488;8.480;2024-03-23T04:20:54;13.60;99.90
41630;DHT22;27322;49.488;8.480;2024-03-23T04:23:20;13.60;99.90
41630;DHT22;27322;49.488;8.480;2024-03-23T04:25:46;13.60;99.90
41630;DHT22;27322;49.488;8.480;2024-03-23T04:28:12;13.60;99.90
41630;DHT22;27322;49.488;8.480;2024-03-23T04:30:37;13.60;99.90
41630;DHT22;27322;49.488;8.480;2024-03-23T04:33:03;13.60;99.90
41630;DHT22;27322;49.488;8.480;2024-03-23T04:35:29;13.60;99.90
41630;DHT22;27322;49.488;8.480;2024-03-23T04:37:54;13.60;99.90
41630;DHT22;27322;49.488;8.480;2024-03-23T04:40:24;13.60;99.90
41630;DHT22;27322;49.488;8.480;2024-03-23T04:42:49;13.60;99.90
41630;DHT22;27322;49.488;8.480;2024-03-23T04:45:15;13.60;99.90
41630;DHT22;27322;49.488;8.480;2024-03-23T04:47:41;13.60;99.90
41630;DHT22;27322;49.488;8.480;2024-03-23T04:50:07;13.60;99.90
41630;DHT22;27322;49.488;8.480;2024-03-23T04:52:32;13.60;99.90
41630;DHT22;27322;49.488;8.480;2024-03-23T04:54:58;13.60;99.90
41630;DHT22;27322;49.488;8.480;2024-03-23T04:57:24;13.60;99.90
41630;DHT22;27322;49.488;8.480;2024-03-23T04:59:49;13.60;99.90
41630;DHT22;27322;49.488;8.480;2024-03-23T05:02:15;13.50;99.90
41630;DHT22;27322;49.488;8.480;2024-03-23T05:04:40;13.60;99.90
41630;DHT22;27322;49.488;8.480;2024-03-23T05:07:06;13.50;99.90
41630;DHT22;27322;49.488;8.480;2024-03-23T05:09:32;13.50;99.90
41630;DHT22;27322;49.488;8.480;2024-03-23T05:11:59;13.50;99.90
41630;DHT22;27322;49.488;8.480;2024-03-23T05:14:25;13.50;99.90
41630;DHT22;27322;49.488;8.480;2024-03-23T05:16:52;13.40;99.90
41630;DHT22;27322;49.488;8.480;2024-03-23T05:19:17;13.40;99.90
41630;DHT22;27322;49.488;8.480;2024-03-23T05:21:43;13.30;99.90
41630;DHT22;27322;49.488;8.480;2024-03-23T05:24:09;13.30;99.90
41630;DHT22;27322;49.488;8.480;2024-03-23T05:26:35;13.20;99.90
41630;DHT22;27322;49.488;8.480;2024-03-23T05:29:01;13.10;99.90
41630;DHT22;27322;49.488;8.480;2024-03-23T05:31:29;12.90;99.90
41630;DHT22;27322;49.488;8.480;2024-03-23T05:34:01;12.80;99.90
41630;DHT22;27322;49.488;8.480;2024-03-23T05:36:26;12.60;99.90
41630;DHT22;27322;49.488;8.480;2024-03-23T05:38:52;12.40;99.90
41630;DHT22;27322;49.488;8.480;2024-03-23T05:41:17;12.20;99.90
41630;DHT22;27322;49.488;8.480;2024-03-23T05:43:43;12.00;99.90
41630;DHT22;27322;49.488;8.480;2024-03-23T05:46:09;11.90;99.90
41630;DHT22;27322;49.488;8.480;2024-03-23T05:48:35;11.80;99.90
41630;DHT22;27322;49.488;8.480;2024-03-23T05:51:01;11.80;99.90
41630;DHT22;27322;49.488;8.480;2024-03-23T05:53:26;11.70;99.90
41630;DHT22;27322;49.488;8.480;2024-03-23T05:56:00;11.60;99.90
41630;DHT22;27322;49.488;8.480;2024-03-23T05:58:29;11.60;99.90
41630;DHT22;27322;49.488;8.480;2024-03-23T06:00:59;11.50;99.90
41630;DHT22;27322;49.488;8.480;2024-03-23T06:03:25;11.50;99.90
41630;DHT22;27322;49.488;8.480;2024-03-23T06:05:51;11.50;99.90
41630;DHT22;27322;49.488;8.480;2024-03-23T06:08:18;11.50;99.90
41630;DHT22;27322;49.488;8.480;2024-03-23T06:10:48;11.50;99.90
41630;DHT22;27322;49.488;8.480;2024-03-23T06:13:14;11.50;99.90
41630;DHT22;27322;49.488;8.480;2024-03-23T06:15:40;11.50;99.90
41630;DHT22;27322;49.488;8.480;2024-03-23T06:18:05;11.50;99.90
41630;DHT22;27322;49.488;8.480;2024-03-23T06:20:33;11.40;99.90
41630;DHT22;27322;49.488;8.480;2024-03-23T06:22:59;11.40;99.90
41630;DHT22;27322;49.488;8.480;2024-03-23T06:25:25;11.40;99.90
41630;DHT22;27322;49.488;8.480;2024-03-23T06:27:51;11.40;99.90
41630;DHT22;27322;49.488;8.480;2024-03-23T06:30:16;11.30;99.90
41630;DHT22;27322;49.488;8.480;2024-03-23T06:32:42;11.30;99.90
41630;DHT22;27322;49.488;8.480;2024-03-23T06:35:08;11.30;99.90
41630;DHT22;27322;49.488;8.480;2024-03-23T06:37:36;11.30;99.90
41630;DHT22;27322;49.488;8.480;2024-03-23T06:40:01;11.30;99.90
41630;DHT22;27322;49.488;8.480;2024-03-23T06:42:27;11.30;99.90
41630;DHT22;27322;49.488;8.480;2024-03-23T06:44:52;11.30;99.90
41630;DHT22;27322;49.488;8.480;2024-03-23T06:47:18;11.20;99.90
41630;DHT22;27322;49.488;8.480;2024-03-23T06:49:43;11.20;99.90
41630;DHT22;27322;49.488;8.480;2024-03-23T06:52:09;11.10;99.90
41630;DHT22;27322;49.488;8.480;2024-03-23T06:54:34;11.10;99.90
41630;DHT22;27322;49.488;8.480;2024-03-23T06:57:00;11.10;99.90
41630;DHT22;27322;49.488;8.480;2024-03-23T06:59:26;11.10;99.90
41630;DHT22;27322;49.488;8.480;2024-03-23T07:01:51;11.10;99.90
41630;DHT22;27322;49.488;8.480;2024-03-23T07:04:17;11.10;99.90
41630;DHT22;27322;49.488;8.480;2024-03-23T07:06:45;11.10;99.90
41630;DHT22;27322;49.488;8.480;2024-03-23T07:09:10;11.20;99.90
41630;DHT22;27322;49.488;8.480;2024-03-23T07:11:36;11.10;99.90
41630;DHT22;27322;49.488;8.480;2024-03-23T07:14:02;11.20;99.90
41630;DHT22;27322;49.488;8.480;2024-03-23T07:16:28;11.10;99.90
41630;DHT22;27322;49.488;8.480;2024-03-23T07:18:54;11.20;99.90
41630;DHT22;27322;49.488;8.480;2024-03-23T07:21:19;11.10;99.90
41630;DHT22;27322;49.488;8.480;2024-03-23T07:23:45;11.10;99.90
41630;DHT22;27322;49.488;8.480;2024-03-23T07:26:11;11.10;99.90
41630;DHT22;27322;49.488;8.480;2024-03-23T07:28:37;11.10;99.90
41630;DHT22;27322;49.488;8.480;2024-03-23T07:31:14;11.10;99.90
41630;DHT22;27322;49.488;8.480;2024-03-23T07:33:44;11.10;99.90
41630;DHT22;27322;49.488;8.480;2024-03-23T07:36:10;11.10;99.90
41630;DHT22;27322;49.488;8.480;2024-03-23T07:38:36;11.10;99.90
41630;DHT22;27322;49.488;8.480;2024-03-23T07:41:05;11.10;99.90
41630;DHT22;27322;49.488;8.480;2024-03-23T07:43:31;11.00;99.90
41630;DHT22;27322;49.488;8.480;2024-03-23T07:45:57;11.00;99.90
41630;DHT22;27322;49.488;8.480;2024-03-23T07:48:23;11.00;99.90
41630;DHT22;27322;49.488;8.480;2024-03-23T07:51:08;10.90;99.90
41630;DHT22;27322;49.488;8.480;2024-03-23T07:53:35;10.90;99.90
41630;DHT22;27322;49.488;8.480;2024-03-23T07:56:08;10.90;99.90
41630;DHT22;27322;49.488;8.480;2024-03-23T07:58:35;10.90;99.90
41630;DHT22;27322;49.488;8.480;2024-03-23T08:01:19;10.90;99.90
41630;DHT22;27322;49.488;8.480;2024-03-23T08:03:45;10.90;99.90
41630;DHT22;27322;49.488;8.480;2024-03-23T08:06:12;10.90;99.90
41630;DHT22;27322;49.488;8.480;2024-03-23T08:08:39;10.90;99.90
41630;DHT22;27322;49.488;8.480;2024-03-23T08:11:04;10.90;99.90
41630;DHT22;27322;49.488;8.480;2024-03-23T08:13:30;10.90;99.90
41630;DHT22;27322;49.488;8.480;2024-03-23T08:15:59;10.90;99.90
41630;DHT22;27322;49.488;8.480;2024-03-23T08:18:25;11.00;99.90
41630;DHT22;27322;49.488;8.480;2024-03-23T08:21:00;11.00;99.90
41630;DHT22;27322;49.488;8.480;2024-03-23T08:23:30;11.00;99.90
41630;DHT22;27322;49.488;8.480;2024-03-23T08:26:00;11.00;99.90
41630;DHT22;27322;49.488;8.480;2024-03-23T08:28:27;11.10;99.90
41630;DHT22;27322;49.488;8.480;2024-03-23T08:30:54;11.10;99.90
41630;DHT22;27322;49.488;8.480;2024-03-23T08:33:20;11.10;99.90
41630;DHT22;27322;49.488;8.480;2024-03-23T08:35:56;11.10;99.90
41630;DHT22;27322;49.488;8.480;2024-03-23T08:38:23;11.10;99.90
41630;DHT22;27322;49.488;8.480;2024-03-23T08:40:59;11.10;99.90
41630;DHT22;27322;49.488;8.480;2024-03-23T08:43:26;11.10;99.90
41630;DHT22;27322;49.488;8.480;2024-03-23T08:45:52;11.20;99.90
41630;DHT22;27322;49.488;8.480;2024-03-23T08:48:19;11.30;99.90
41630;DHT22;27322;49.488;8.480;2024-03-23T08:50:46;11.30;99.90
41630;DHT22;27322;49.488;8.480;2024-03-23T08:53:12;11.40;99.90
41630;DHT22;27322;49.488;8.480;2024-03-23T08:55:38;11.50;99.90
41630;DHT22;27322;49.488;8.480;2024-03-23T08:58:03;11.50;99.90
41630;DHT22;27322;49.488;8.480;2024-03-23T09:00:29;11.50;99.90
41630;DHT22;27322;49.488;8.480;2024-03-23T09:02:55;11.60;99.90
41630;DHT22;27322;49.488;8.480;2024-03-23T09:05:22;11.60;99.90
41630;DHT22;27322;49.488;8.480;2024-03-23T09:07:49;11.60;99.90
41630;DHT22;27322;49.488;8.480;2024-03-23T09:10:15;11.60;99.90
41630;DHT22;27322;49.488;8.480;2024-03-23T09:12:40;11.70;99.90
41630;DHT22;27322;49.488;8.480;2024-03-23T09:15:06;11.70;99.90
41630;DHT22;27322;49.488;8.480;2024-03-23T09:17:32;11.60;99.90
41630;DHT22;27322;49.488;8.480;2024-03-23T09:19:58;11.60;99.90
41630;DHT22;27322;49.488;8.480;2024-03-23T09:22:23;11.60;99.90
41630;DHT22;27322;49.488;8.480;2024-03-23T09:24:49;11.60;99.90
41630;DHT22;27322;49.488;8.480;2024-03-23T09:27:14;11.60;99.90
41630;DHT22;27322;49.488;8.480;2024-03-23T09:29:40;11.50;99.90
41630;DHT22;27322;49.488;8.480;2024-03-23T09:32:05;11.50;99.90
41630;DHT22;27322;49.488;8.480;2024-03-23T09:34:31;11.50;99.90
41630;DHT22;27322;49.488;8.480;2024-03-23T09:36:56;11.50;99.90
41630;DHT22;27322;49.488;8.480;2024-03-23T09:39:22;11.50;99.90
41630;DHT22;27322;49.488;8.480;2024-03-23T09:41:48;11.60;99.90
41630;DHT22;27322;49.488;8.480;2024-03-23T09:44:13;11.60;99.90
41630;DHT22;27322;49.488;8.480;2024-03-23T09:46:39;11.60;99.90
41630;DHT22;27322;49.488;8.480;2024-03-23T09:49:07;11.60;99.90
41630;DHT22;27322;49.488;8.480;2024-03-23T09:51:37;11.60;99.90
41630;DHT22;27322;49.488;8.480;2024-03-23T09:54:03;11.60;99.90
41630;DHT22;27322;49.488;8.480;2024-03-23T09:56:28;11.60;99.90
41630;DHT22;27322;49.488;8.480;2024-03-23T09:59:03;11.60;99.90
41630;DHT22;27322;49.488;8.480;2024-03-23T10:01:30;11.60;99.90
41630;DHT22;27322;49.488;8.480;2024-03-23T10:03:56;11.70;99.90
41630;DHT22;27322;49.488;8.480;2024-03-23T10:06:22;11.60;99.90
41630;DHT22;27322;49.488;8.480;2024-03-23T10:08:50;11.60;99.90
41630;DHT22;27322;49.488;8.480;2024-03-23T10:11:16;11.60;99.90
41630;DHT22;27322;49.488;8.480;2024-03-23T10:13:43;11.70;99.90
41630;DHT22;27322;49.488;8.480;2024-03-23T10:16:09;11.70;99.90
41630;DHT22;27322;49.488;8.480;2024-03-23T10:18:41;11.80;99.20
41630;DHT22;27322;49.488;8.480;2024-03-23T10:23:42;11.80;97.90
41630;DHT22;27322;49.488;8.480;2024-03-23T10:31:22;11.90;99.20
41630;DHT22;27322;49.488;8.480;2024-03-23T10:33:48;11.90;98.20
41630;DHT22;27322;49.488;8.480;2024-03-23T10:36:14;12.00;98.60
41630;DHT22;27322;49.488;8.480;2024-03-23T10:38:43;12.00;96.80
41630;DHT22;27322;49.488;8.480;2024-03-23T10:41:10;12.10;97.50
41630;DHT22;27322;49.488;8.480;2024-03-23T10:43:36;12.10;97.10
41630;DHT22;27322;49.488;8.480;2024-03-23T10:46:03;12.20;93.70
41630;DHT22;27322;49.488;8.480;2024-03-23T10:48:28;12.30;93.30
41630;DHT22;27322;49.488;8.480;2024-03-23T10:50:54;12.40;94.00
41630;DHT22;27322;49.488;8.480;2024-03-23T10:53:22;12.50;94.40
41630;DHT22;27322;49.488;8.480;2024-03-23T10:55:50;12.50;94.50
41630;DHT22;27322;49.488;8.480;2024-03-23T10:58:19;12.50;93.10
41630;DHT22;27322;49.488;8.480;2024-03-23T11:00:47;12.60;94.20
41630;DHT22;27322;49.488;8.480;2024-03-23T11:03:35;12.90;91.60
41630;DHT22;27322;49.488;8.480;2024-03-23T11:06:03;13.30;91.40
41630;DHT22;27322;49.488;8.480;2024-03-23T11:08:39;13.50;92.50
41630;DHT22;27322;49.488;8.480;2024-03-23T11:11:23;13.60;93.10
41630;DHT22;27322;49.488;8.480;2024-03-23T11:13:51;13.60;92.50
41630;DHT22;27322;49.488;8.480;2024-03-23T11:18:49;13.80;92.20
41630;DHT22;27322;49.488;8.480;2024-03-23T11:21:52;13.90;92.40
41630;DHT22;27322;49.488;8.480;2024-03-23T11:24:21;13.90;92.90
41630;DHT22;27322;49.488;8.480;2024-03-23T11:26:48;13.90;90.80
41630;DHT22;27322;49.488;8.480;2024-03-23T11:29:16;13.80;90.50
41630;DHT22;27322;49.488;8.480;2024-03-23T11:31:52;13.70;91.10
41630;DHT22;27322;49.488;8.480;2024-03-23T11:34:19;13.60;90.80
41630;DHT22;27322;49.488;8.480;2024-03-23T11:36:44;13.50;90.40
41630;DHT22;27322;49.488;8.480;2024-03-23T11:39:20;13.30;91.30
41630;DHT22;27322;49.488;8.480;2024-03-23T11:41:53;13.10;93.80
41630;DHT22;27322;49.488;8.480;2024-03-23T11:44:23;12.90;95.00
41630;DHT22;27322;49.488;8.480;2024-03-23T11:46:50;12.60;97.30
41630;DHT22;27322;49.488;8.480;2024-03-23T11:49:28;12.40;99.90
41630;DHT22;27322;49.488;8.480;2024-03-23T11:51:55;12.10;99.90
41630;DHT22;27322;49.488;8.480;2024-03-23T11:56:55;11.50;99.90
41630;DHT22;27322;49.488;8.480;2024-03-23T11:59:50;11.30;99.90
41630;DHT22;27322;49.488;8.480;2024-03-23T12:02:18;11.10;99.90
41630;DHT22;27322;49.488;8.480;2024-03-23T12:04:44;11.00;99.90
41630;DHT22;27322;49.488;8.480;2024-03-23T12:07:19;10.90;99.90
41630;DHT22;27322;49.488;8.480;2024-03-23T12:09:46;10.80;99.90
41630;DHT22;27322;49.488;8.480;2024-03-23T12:12:18;10.80;99.90
41630;DHT22;27322;49.488;8.480;2024-03-23T12:14:44;10.80;99.90
41630;DHT22;27322;49.488;8.480;2024-03-23T12:17:14;10.70;99.90
41630;DHT22;27322;49.488;8.480;2024-03-23T12:19:41;10.70;99.90
41630;DHT22;27322;49.488;8.480;2024-03-23T12:22:07;10.80;99.90
41630;DHT22;27322;49.488;8.480;2024-03-23T12:24:34;10.80;99.90
41630;DHT22;27322;49.488;8.480;2024-03-23T12:27:04;10.90;99.90
41630;DHT22;27322;49.488;8.480;2024-03-23T12:29:31;10.90;99.90
41630;DHT22;27322;49.488;8.480;2024-03-23T12:31:59;10.90;99.90
41630;DHT22;27322;49.488;8.480;2024-03-23T12:34:25;11.00;99.90
41630;DHT22;27322;49.488;8.480;2024-03-23T12:36:50;11.00;99.90
41630;DHT22;27322;49.488;8.480;2024-03-23T12:39:16;11.00;99.90
41630;DHT22;27322;49.488;8.480;2024-03-23T12:41:41;11.00;99.90
41630;DHT22;27322;49.488;8.480;2024-03-23T12:44:07;11.00;99.90
41630;DHT22;27322;49.488;8.480;2024-03-23T12:46:34;11.00;99.90
41630;DHT22;27322;49.488;8.480;2024-03-23T12:49:00;11.00;99.90
41630;DHT22;27322;49.488;8.480;2024-03-23T12:51:26;11.00;99.90
41630;DHT22;27322;49.488;8.480;2024-03-23T12:53:51;11.00;99.90
41630;DHT22;27322;49.488;8.480;2024-03-23T12:56:17;11.10;99.90
41630;DHT22;27322;49.488;8.480;2024-03-23T12:58:42;11.10;99.90
41630;DHT22;27322;49.488;8.480;2024-03-23T13:01:08;11.00;99.90
41630;DHT22;27322;49.488;8.480;2024-03-23T13:03:33;10.90;99.90
41630;DHT22;27322;49.488;8.480;2024-03-23T13:05:59;10.80;99.90
41630;DHT22;27322;49.488;8.480;2024-03-23T13:08:25;10.70;99.90
41630;DHT22;27322;49.488;8.480;2024-03-23T13:10:53;10.50;99.90
41630;DHT22;27322;49.488;8.480;2024-03-23T13:13:19;10.40;99.90
41630;DHT22;27322;49.488;8.480;2024-03-23T13:15:51;10.20;99.90
41630;DHT22;27322;49.488;8.480;2024-03-23T13:18:16;10.10;99.90
41630;DHT22;27322;49.488;8.480;2024-03-23T13:20:42;10.00;99.90
41630;DHT22;27322;49.488;8.480;2024-03-23T13:23:07;9.90;99.90
41630;DHT22;27322;49.488;8.480;2024-03-23T13:25:34;9.90;99.90
41630;DHT22;27322;49.488;8.480;2024-03-23T13:27:59;9.90;99.90
41630;DHT22;27322;49.488;8.480;2024-03-23T13:30:26;9.90;99.90
41630;DHT22;27322;49.488;8.480;2024-03-23T13:32:52;9.90;99.90
41630;DHT22;27322;49.488;8.480;2024-03-23T13:35:18;9.90;99.90
41630;DHT22;27322;49.488;8.480;2024-03-23T13:37:43;10.00;99.90
41630;DHT22;27322;49.488;8.480;2024-03-23T13:40:09;10.10;99.90
41630;DHT22;27322;49.488;8.480;2024-03-23T13:42:35;10.20;99.90
41630;DHT22;27322;49.488;8.480;2024-03-23T13:45:01;10.30;99.90
41630;DHT22;27322;49.488;8.480;2024-03-23T13:47:26;10.40;99.90
41630;DHT22;27322;49.488;8.480;2024-03-23T13:49:53;10.60;99.90
41630;DHT22;27322;49.488;8.480;2024-03-23T13:52:19;10.90;99.90
41630;DHT22;27322;49.488;8.480;2024-03-23T13:54:48;11.20;99.90
41630;DHT22;27322;49.488;8.480;2024-03-23T13:57:14;11.50;99.90
41630;DHT22;27322;49.488;8.480;2024-03-23T13:59:39;11.70;99.90
41630;DHT22;27322;49.488;8.480;2024-03-23T14:02:05;11.90;99.90
41630;DHT22;27322;49.488;8.480;2024-03-23T14:04:30;12.00;99.90
41630;DHT22;27322;49.488;8.480;2024-03-23T14:06:56;11.90;99.90
41630;DHT22;27322;49.488;8.480;2024-03-23T14:09:23;11.90;99.90
41630;DHT22;27322;49.488;8.480;2024-03-23T14:11:51;11.80;99.90
41630;DHT22;27322;49.488;8.480;2024-03-23T14:14:17;11.70;99.90
41630;DHT22;27322;49.488;8.480;2024-03-23T14:16:43;11.60;99.90
41630;DHT22;27322;49.488;8.480;2024-03-23T14:19:08;11.50;99.90
41630;DHT22;27322;49.488;8.480;2024-03-23T14:21:34;11.50;99.90
41630;DHT22;27322;49.488;8.480;2024-03-23T14:24:00;11.40;99.90
41630;DHT22;27322;49.488;8.480;2024-03-23T14:26:27;11.50;99.90
41630;DHT22;27322;49.488;8.480;2024-03-23T14:28:52;11.80;99.90
41630;DHT22;27322;49.488;8.480;2024-03-23T14:31:18;12.20;99.90
41630;DHT22;27322;49.488;8.480;2024-03-23T14:33:43;12.40;99.90
41630;DHT22;27322;49.488;8.480;2024-03-23T14:36:13;12.40;99.90
41630;DHT22;27322;49.488;8.480;2024-03-23T14:38:38;12.30;99.90
41630;DHT22;27322;49.488;8.480;2024-03-23T14:41:04;12.20;99.90
41630;DHT22;27322;49.488;8.480;2024-03-23T14:43:30;11.90;99.90
41630;DHT22;27322;49.488;8.480;2024-03-23T14:46:15;11.70;99.90
41630;DHT22;27322;49.488;8.480;2024-03-23T14:48:43;11.60;99.90
41630;DHT22;27322;49.488;8.480;2024-03-23T14:51:10;11.30;99.90
41630;DHT22;27322;49.488;8.480;2024-03-23T14:53:37;11.20;99.90
41630;DHT22;27322;49.488;8.480;2024-03-23T14:56:06;11.00;99.90
41630;DHT22;27322;49.488;8.480;2024-03-23T14:58:31;10.90;99.90
41630;DHT22;27322;49.488;8.480;2024-03-23T15:01:04;10.80;99.90
41630;DHT22;27322;49.488;8.480;2024-03-23T15:03:30;10.60;99.90
41630;DHT22;27322;49.488;8.480;2024-03-23T15:05:56;10.60;99.90
41630;DHT22;27322;49.488;8.480;2024-03-23T15:08:22;10.50;99.90
41630;DHT22;27322;49.488;8.480;2024-03-23T15:10:48;10.50;99.90
41630;DHT22;27322;49.488;8.480;2024-03-23T15:13:14;10.50;99.90
41630;DHT22;27322;49.488;8.480;2024-03-23T15:15:43;10.50;99.90
41630;DHT22;27322;49.488;8.480;2024-03-23T15:18:13;10.50;99.90
41630;DHT22;27322;49.488;8.480;2024-03-23T15:20:57;10.40;99.90
41630;DHT22;27322;49.488;8.480;2024-03-23T15:23:23;10.40;99.90
41630;DHT22;27322;49.488;8.480;2024-03-23T15:25:56;10.40;99.90
41630;DHT22;27322;49.488;8.480;2024-03-23T15:28:23;10.40;99.90
41630;DHT22;27322;49.488;8.480;2024-03-23T15:30:49;10.40;99.90
41630;DHT22;27322;49.488;8.480;2024-03-23T15:33:14;10.30;99.90
41630;DHT22;27322;49.488;8.480;2024-03-23T15:35:40;10.40;99.90
41630;DHT22;27322;49.488;8.480;2024-03-23T15:38:05;10.30;99.90
41630;DHT22;27322;49.488;8.480;2024-03-23T15:40:31;10.40;99.90
41630;DHT22;27322;49.488;8.480;2024-03-23T15:42:57;10.40;99.90
41630;DHT22;27322;49.488;8.480;2024-03-23T15:45:22;10.30;99.90
41630;DHT22;27322;49.488;8.480;2024-03-23T15:47:48;10.40;99.90
41630;DHT22;27322;49.488;8.480;2024-03-23T15:50:13;10.40;99.90
41630;DHT22;27322;49.488;8.480;2024-03-23T15:52:39;10.40;99.90
41630;DHT22;27322;49.488;8.480;2024-03-23T15:55:05;10.40;99.90
41630;DHT22;27322;49.488;8.480;2024-03-23T15:57:35;10.30;99.90
41630;DHT22;27322;49.488;8.480;2024-03-23T16:00:03;10.20;99.90
41630;DHT22;27322;49.488;8.480;2024-03-23T16:02:28;10.00;99.90
41630;DHT22;27322;49.488;8.480;2024-03-23T16:04:55;9.90;99.90
41630;DHT22;27322;49.488;8.480;2024-03-23T16:07:21;9.80;99.90
41630;DHT22;27322;49.488;8.480;2024-03-23T16:09:46;9.80;99.90
41630;DHT22;27322;49.488;8.480;2024-03-23T16:12:12;9.80;99.90
41630;DHT22;27322;49.488;8.480;2024-03-23T16:14:37;9.70;99.90
41630;DHT22;27322;49.488;8.480;2024-03-23T16:17:03;9.70;99.90
41630;DHT22;27322;49.488;8.480;2024-03-23T16:19:28;9.70;99.90
41630;DHT22;27322;49.488;8.480;2024-03-23T16:21:54;9.70;99.90
41630;DHT22;27322;49.488;8.480;2024-03-23T16:24:21;9.70;99.90
41630;DHT22;27322;49.488;8.480;2024-03-23T16:26:46;9.70;99.90
41630;DHT22;27322;49.488;8.480;2024-03-23T16:29:12;9.70;99.90
41630;DHT22;27322;49.488;8.480;2024-03-23T16:31:38;9.70;99.90
41630;DHT22;27322;49.488;8.480;2024-03-23T16:34:03;9.60;99.90
41630;DHT22;27322;49.488;8.480;2024-03-23T16:36:29;9.60;99.90